createdAt,value
2023-03-18T00:01:29.620Z,19856.53
2023-03-18T00:03:57.800Z,19834.16
2023-03-18T00:06:26.149Z,19821.97
2023-03-18T00:08:54.395Z,19834.16
2023-03-18T00:11:24.434Z,19838.22
2023-03-18T00:13:52.876Z,19852.44
2023-03-18T00:16:21.330Z,19836.19
2023-03-18T00:18:50.391Z,19824.00
2023-03-18T00:21:20.055Z,19832.13
2023-03-18T00:23:48.934Z,19821.97
2023-03-18T00:26:17.617Z,19850.41
2023-03-18T00:28:47.543Z,19852.44
2023-03-18T00:31:16.020Z,19817.91
2023-03-18T00:33:45.810Z,19895.13
2023-03-18T00:36:15.380Z,19824.00
2023-03-18T00:38:46.621Z,19852.44
2023-03-18T00:41:16.498Z,19846.34
2023-03-18T00:43:52.604Z,19813.84
2023-03-18T00:46:24.598Z,19819.94
2023-03-18T00:48:54.956Z,19858.56
2023-03-18T00:51:25.953Z,19815.88
2023-03-18T00:53:57.661Z,19824.00
2023-03-18T00:56:29.431Z,19795.53
2023-03-18T00:59:00.027Z,19824.00
2023-03-18T01:01:29.845Z,19817.91
2023-03-18T01:03:58.495Z,19842.28
2023-03-18T01:06:30.087Z,19852.44
2023-03-18T01:08:59.590Z,19880.91
2023-03-18T01:11:28.620Z,19838.22
2023-03-18T01:13:59.308Z,19836.19
2023-03-18T01:16:28.205Z,19850.41
2023-03-18T01:18:56.645Z,19815.88
2023-03-18T01:21:25.504Z,19882.94
2023-03-18T01:23:54.278Z,19821.97
2023-03-18T01:26:23.159Z,19862.63
2023-03-18T01:28:51.711Z,19846.34
2023-03-18T01:31:21.204Z,19840.25
2023-03-18T01:33:49.905Z,19862.63
2023-03-18T01:36:18.424Z,19850.41
2023-03-18T01:38:46.701Z,19850.41
2023-03-18T01:41:16.749Z,19834.16
2023-03-18T01:43:45.045Z,19801.66
2023-03-18T01:46:38.316Z,19868.72
2023-03-18T01:49:12.614Z,19858.56
2023-03-18T01:51:47.344Z,19895.13
2023-03-18T01:54:17.562Z,19785.38
2023-03-18T01:56:50.473Z,19809.78
2023-03-18T01:59:22.393Z,19834.16
2023-03-18T02:01:58.165Z,19817.91
2023-03-18T02:04:33.602Z,19797.59
2023-03-18T02:07:02.315Z,19834.16
2023-03-18T02:09:30.847Z,19813.84
2023-03-18T02:12:02.264Z,19832.13
2023-03-18T02:14:30.783Z,19795.53
2023-03-18T02:17:14.283Z,19779.28
2023-03-18T02:19:59.127Z,19801.66
2023-03-18T02:22:33.159Z,19807.75
2023-03-18T02:25:22.823Z,19815.88
2023-03-18T02:27:59.165Z,19809.78
2023-03-18T02:30:32.835Z,19815.88
2023-03-18T02:33:02.539Z,19797.59
2023-03-18T02:35:33.673Z,19819.94
2023-03-18T02:38:01.924Z,19781.31
2023-03-18T02:40:34.106Z,19789.44
2023-03-18T02:43:21.125Z,19793.50
2023-03-18T02:46:25.611Z,19801.66
2023-03-18T02:48:54.983Z,19809.78
2023-03-18T02:51:23.155Z,19779.28
2023-03-18T02:53:52.288Z,19763.03
2023-03-18T02:56:20.420Z,19813.84
2023-03-18T02:58:51.683Z,19781.31
2023-03-18T03:01:20.963Z,19779.28
2023-03-18T03:03:49.979Z,19773.19
2023-03-18T03:06:18.501Z,19756.94
2023-03-18T03:08:47.369Z,19767.09
2023-03-18T03:11:15.828Z,19793.50
2023-03-18T03:13:45.958Z,19736.59
2023-03-18T03:16:17.284Z,19720.34
2023-03-18T03:18:45.778Z,19730.50
2023-03-18T03:21:16.159Z,19700.03
2023-03-18T03:23:45.995Z,19714.25
2023-03-18T03:26:14.437Z,19724.41
2023-03-18T03:28:43.002Z,19700.03
2023-03-18T03:31:11.801Z,19710.19
2023-03-18T03:33:43.693Z,19736.59
2023-03-18T03:36:14.928Z,19720.34
2023-03-18T03:38:43.527Z,19736.59
2023-03-18T03:41:15.645Z,19734.56
2023-03-18T03:43:44.837Z,19714.25
2023-03-18T03:46:13.765Z,19738.66
2023-03-18T03:48:43.295Z,19744.75
2023-03-18T03:51:11.383Z,19748.81
2023-03-18T03:53:39.513Z,19752.88
2023-03-18T03:56:09.191Z,19742.72
2023-03-18T03:58:37.792Z,19712.22
2023-03-18T04:01:06.476Z,19708.16
2023-03-18T04:03:34.948Z,19740.69
2023-03-18T04:06:04.531Z,19714.25
2023-03-18T04:08:32.723Z,19689.88
2023-03-18T04:11:00.910Z,19752.88
2023-03-18T04:13:29.076Z,19785.38
2023-03-18T04:15:57.221Z,19761.00
2023-03-18T04:18:25.931Z,19734.56
2023-03-18T04:20:54.180Z,19736.59
2023-03-18T04:23:23.655Z,19779.28
2023-03-18T04:25:51.768Z,19708.16
2023-03-18T04:28:19.874Z,19777.25
2023-03-18T04:30:50.552Z,19718.31
2023-03-18T04:33:19.387Z,19704.09
2023-03-18T04:35:49.743Z,19726.44
2023-03-18T04:38:18.076Z,19736.59
2023-03-18T04:40:47.809Z,19761.00
2023-03-18T04:43:16.116Z,19777.25
2023-03-18T04:45:45.013Z,19758.97
2023-03-18T04:48:13.163Z,19744.75
2023-03-18T04:50:41.360Z,19756.94
2023-03-18T04:53:09.921Z,19750.84
2023-03-18T04:55:38.109Z,19777.25
2023-03-18T04:58:07.595Z,19761.00
2023-03-18T05:00:35.941Z,19803.69
2023-03-18T05:03:04.474Z,19813.84
2023-03-18T05:05:32.898Z,19736.59
2023-03-18T05:08:01.223Z,19722.38
2023-03-18T05:10:29.784Z,19801.66
2023-03-18T05:12:57.911Z,19742.72
2023-03-18T05:15:27.542Z,19738.66
2023-03-18T05:17:55.648Z,19789.44
2023-03-18T05:20:23.865Z,19732.53
2023-03-18T05:22:52.300Z,19761.00
2023-03-18T05:25:22.641Z,19732.53
2023-03-18T05:27:50.735Z,19765.06
2023-03-18T05:30:19.518Z,19756.94
2023-03-18T05:32:49.035Z,19726.44
2023-03-18T05:35:17.680Z,19763.03
2023-03-18T05:37:46.566Z,19754.91
2023-03-18T05:40:15.364Z,19740.69
2023-03-18T05:42:55.394Z,19758.97
2023-03-18T05:45:24.307Z,19726.44
2023-03-18T05:47:53.925Z,19724.41
2023-03-18T05:50:31.349Z,19732.53
2023-03-18T05:53:00.750Z,19726.44
2023-03-18T05:55:29.673Z,19720.34
2023-03-18T05:57:59.025Z,19728.47
2023-03-18T06:00:28.654Z,19767.09
2023-03-18T06:02:59.765Z,19730.50
2023-03-18T06:05:29.776Z,19746.78
2023-03-18T06:07:58.659Z,19746.78
2023-03-18T06:10:27.798Z,19761.00
2023-03-18T06:12:56.816Z,19728.47
2023-03-18T06:15:25.610Z,19732.53
2023-03-18T06:17:53.817Z,19797.59
2023-03-18T06:20:23.541Z,19756.94
2023-03-18T06:22:51.925Z,19783.34
2023-03-18T06:25:22.402Z,19801.66
2023-03-18T06:27:51.055Z,19807.75
2023-03-18T06:30:20.597Z,19858.56
2023-03-18T06:32:48.758Z,19854.50
2023-03-18T06:35:17.290Z,19803.69
2023-03-18T06:37:46.790Z,19791.47
2023-03-18T06:40:15.593Z,19817.91
2023-03-18T06:42:44.544Z,19803.69
2023-03-18T06:45:13.666Z,19815.88
2023-03-18T06:47:42.976Z,19813.84
2023-03-18T06:50:13.533Z,19781.31
2023-03-18T06:52:42.303Z,19826.03
2023-03-18T06:55:13.025Z,19838.22
2023-03-18T06:57:41.537Z,19860.59
2023-03-18T07:00:12.595Z,19895.13
2023-03-18T07:02:40.969Z,19905.28
2023-03-18T07:05:10.446Z,19903.25
2023-03-18T07:07:38.656Z,19931.72
2023-03-18T07:10:09.367Z,19893.09
2023-03-18T07:12:40.244Z,19935.78
2023-03-18T07:15:11.554Z,19915.47
2023-03-18T07:17:39.659Z,19917.50
2023-03-18T07:20:09.088Z,19911.41
2023-03-18T07:22:37.810Z,19950.00
2023-03-18T07:25:07.582Z,19919.53
2023-03-18T07:27:36.033Z,19911.41
2023-03-18T07:30:09.444Z,19935.78
2023-03-18T07:32:38.690Z,19974.41
2023-03-18T07:35:10.794Z,19992.69
2023-03-18T07:37:40.296Z,19998.78
2023-03-18T07:40:10.206Z,20041.47
2023-03-18T07:42:38.876Z,20049.59
2023-03-18T07:45:10.648Z,20053.66
2023-03-18T07:47:39.053Z,20053.66
2023-03-18T07:50:08.810Z,20063.81
2023-03-18T07:52:37.388Z,20110.56
2023-03-18T07:55:07.024Z,20126.84
2023-03-18T07:57:35.397Z,20086.19
2023-03-18T08:00:05.117Z,20094.31
2023-03-18T08:02:36.074Z,20088.22
2023-03-18T08:05:06.821Z,20082.13
2023-03-18T08:07:35.708Z,20069.94
2023-03-18T08:10:04.856Z,20045.53
2023-03-18T08:12:45.340Z,20037.41
2023-03-18T08:15:17.739Z,20023.19
2023-03-18T08:17:47.306Z,19994.72
2023-03-18T08:20:15.608Z,20010.97
2023-03-18T08:22:45.881Z,19986.59
2023-03-18T08:25:15.457Z,19984.56
2023-03-18T08:27:44.069Z,19988.63
2023-03-18T08:30:15.064Z,20002.84
2023-03-18T08:32:43.883Z,20037.41
2023-03-18T08:35:14.232Z,20061.78
2023-03-18T08:37:42.559Z,20008.94
2023-03-18T08:40:13.366Z,20015.03
2023-03-18T08:42:41.551Z,19994.72
2023-03-18T08:45:11.160Z,20004.88
2023-03-18T08:47:39.605Z,20051.63
2023-03-18T08:50:08.986Z,20015.03
2023-03-18T08:52:39.801Z,20049.59
2023-03-18T08:55:10.058Z,20082.13
2023-03-18T08:57:38.884Z,20082.13
2023-03-18T09:00:09.116Z,20078.06
2023-03-18T09:02:37.315Z,20069.94
2023-03-18T09:05:06.763Z,20080.09
2023-03-18T09:07:35.248Z,20128.88
2023-03-18T09:10:06.135Z,20181.72
2023-03-18T09:12:34.510Z,20200.00
2023-03-18T09:15:03.171Z,20240.66
2023-03-18T09:17:51.097Z,20232.53
2023-03-18T09:20:19.683Z,20305.69
2023-03-18T09:22:50.924Z,20340.25
2023-03-18T09:25:20.695Z,20307.72
2023-03-18T09:27:48.949Z,20368.72
2023-03-18T09:30:17.393Z,20360.59
2023-03-18T09:32:45.733Z,20358.56
2023-03-18T09:35:14.664Z,20376.84
2023-03-18T09:37:43.922Z,20407.34
2023-03-18T09:40:24.631Z,20441.88
2023-03-18T09:43:10.606Z,20480.50
2023-03-18T09:45:57.053Z,20445.94
2023-03-18T09:49:18.679Z,20484.56
2023-03-18T09:52:04.878Z,20582.16
2023-03-18T09:54:39.623Z,20610.59
2023-03-18T09:57:19.505Z,20647.19
2023-03-18T09:59:54.694Z,20793.56
2023-03-18T10:02:33.339Z,20756.97
2023-03-18T10:05:06.744Z,20773.22
2023-03-18T10:07:41.532Z,20702.09
2023-03-18T10:10:19.266Z,20693.94
2023-03-18T10:12:55.326Z,20807.78
2023-03-18T10:15:32.447Z,20754.94
2023-03-18T10:18:11.518Z,20761.03
2023-03-18T10:20:56.136Z,20803.72
2023-03-18T10:23:39.171Z,20891.13
2023-03-18T10:26:17.409Z,20891.13
2023-03-18T10:29:08.608Z,20913.50
2023-03-18T10:31:50.961Z,20891.13
2023-03-18T10:34:23.930Z,20862.69
2023-03-18T10:37:00.339Z,20907.41
2023-03-18T10:39:30.588Z,20925.69
2023-03-18T10:42:21.814Z,20883.00
2023-03-18T10:44:52.772Z,20956.19
2023-03-18T10:47:28.262Z,20923.66
2023-03-18T10:50:06.056Z,21004.97
2023-03-18T10:52:42.516Z,20990.75
2023-03-18T10:55:18.110Z,21007.00
2023-03-18T10:57:46.355Z,20990.75
2023-03-18T11:00:28.706Z,20970.41
2023-03-18T11:02:58.529Z,21055.81
2023-03-18T11:05:29.893Z,21004.97
2023-03-18T11:08:02.036Z,20994.81
2023-03-18T11:10:35.885Z,20980.59
2023-03-18T11:13:06.236Z,20954.16
2023-03-18T11:15:40.318Z,20880.97
2023-03-18T11:18:19.813Z,20885.03
2023-03-18T11:20:55.305Z,20899.28
2023-03-18T11:23:46.228Z,20885.03
2023-03-18T11:26:23.055Z,20844.38
2023-03-18T11:28:56.136Z,20872.84
2023-03-18T11:31:25.957Z,20891.13
2023-03-18T11:34:00.627Z,20897.25
2023-03-18T11:36:32.308Z,20854.53
2023-03-18T11:39:05.585Z,20885.03
2023-03-18T11:41:33.803Z,20915.53
2023-03-18T11:44:04.948Z,20913.50
2023-03-18T11:46:40.526Z,20933.81
2023-03-18T11:49:16.220Z,20939.94
2023-03-18T11:51:59.438Z,20972.47
2023-03-18T11:55:04.211Z,20988.72
2023-03-18T11:57:49.964Z,21025.31
2023-03-18T12:00:33.376Z,20992.78
2023-03-18T12:03:54.385Z,21009.03
2023-03-18T12:06:24.927Z,20986.69
2023-03-18T12:09:07.285Z,20966.34
2023-03-18T12:12:00.681Z,20950.09
2023-03-18T12:14:38.809Z,20903.34
2023-03-18T12:17:27.077Z,20909.44
2023-03-18T12:20:40.283Z,20948.06
2023-03-18T12:23:38.647Z,20966.34
2023-03-18T12:26:10.925Z,20937.91
2023-03-18T12:28:54.909Z,20905.38
2023-03-18T12:31:53.285Z,20982.63
2023-03-18T12:34:46.387Z,21011.09
2023-03-18T12:37:34.282Z,21029.38
2023-03-18T12:40:36.470Z,21057.84
2023-03-18T12:43:46.098Z,21047.69
2023-03-18T12:46:28.763Z,21017.19
2023-03-18T12:49:10.761Z,21063.94
2023-03-18T12:51:47.923Z,21078.16
2023-03-18T12:54:25.822Z,20990.75
2023-03-18T12:57:03.560Z,20992.78
2023-03-18T12:59:39.892Z,21037.50
2023-03-18T13:02:41.247Z,21017.19
2023-03-18T13:05:24.855Z,20994.81
2023-03-18T13:08:07.627Z,20966.34
2023-03-18T13:10:37.912Z,20982.63
2023-03-18T13:13:11.507Z,20994.81
2023-03-18T13:15:46.086Z,21000.91
2023-03-18T13:18:20.109Z,20976.53
2023-03-18T13:20:51.102Z,20994.81
2023-03-18T13:23:45.491Z,20974.50
2023-03-18T13:26:25.795Z,21004.97
2023-03-18T13:29:13.981Z,20980.59
2023-03-18T13:31:56.029Z,20944.00
2023-03-18T13:35:13.323Z,20996.84
2023-03-18T13:38:50.152Z,21023.28
2023-03-18T13:42:09.131Z,21017.19
2023-03-18T13:44:45.034Z,21025.31
2023-03-18T13:47:20.806Z,21037.50
2023-03-18T13:49:50.216Z,21023.28
2023-03-18T13:52:30.350Z,21041.56
2023-03-18T13:55:06.479Z,21015.16
2023-03-18T13:57:49.453Z,20994.81
2023-03-18T14:00:40.409Z,21015.16
2023-03-18T14:03:21.917Z,20990.75
2023-03-18T14:05:51.636Z,21000.91
2023-03-18T14:08:50.223Z,20998.88
2023-03-18T14:11:50.329Z,20952.13
2023-03-18T14:14:54.863Z,20976.53
2023-03-18T14:17:49.322Z,20988.72
2023-03-18T14:20:39.427Z,20919.59
2023-03-18T14:23:35.549Z,20984.66
2023-03-18T14:26:08.800Z,20946.03
2023-03-18T14:28:49.186Z,20994.81
2023-03-18T14:31:33.091Z,20980.59
2023-03-18T14:34:25.548Z,20974.50
2023-03-18T14:37:29.316Z,21017.19
2023-03-18T14:40:07.228Z,21090.38
2023-03-18T14:43:00.813Z,21076.13
2023-03-18T14:45:35.111Z,21114.75
2023-03-18T14:48:16.716Z,21047.69
2023-03-18T14:50:50.276Z,21004.97
2023-03-18T14:53:28.561Z,21011.09
2023-03-18T14:55:59.540Z,21000.91
2023-03-18T14:58:28.584Z,20976.53
2023-03-18T15:01:05.078Z,20994.81
2023-03-18T15:03:35.015Z,20976.53
2023-03-18T15:06:08.007Z,20960.25
2023-03-18T15:08:48.049Z,20905.38
2023-03-18T15:11:20.302Z,20880.97
2023-03-18T15:13:48.536Z,20834.22
2023-03-18T15:16:23.865Z,20856.56
2023-03-18T15:18:56.906Z,20781.38
2023-03-18T15:21:32.321Z,20809.81
2023-03-18T15:24:05.261Z,20830.16
2023-03-18T15:26:38.527Z,20826.09
2023-03-18T15:29:27.957Z,20836.25
2023-03-18T15:32:10.657Z,20834.22
2023-03-18T15:34:44.689Z,20858.59
2023-03-18T15:37:33.550Z,20923.66
2023-03-18T15:40:29.761Z,20846.41
2023-03-18T15:43:04.296Z,20905.38
2023-03-18T15:45:34.114Z,20880.97
2023-03-18T15:48:09.074Z,20834.22
2023-03-18T15:50:38.749Z,20854.53
2023-03-18T15:53:21.496Z,20820.00
2023-03-18T15:55:52.770Z,20807.78
2023-03-18T15:58:26.750Z,20769.16
2023-03-18T16:00:57.471Z,20740.69
2023-03-18T16:03:30.563Z,20708.19
2023-03-18T16:06:01.919Z,20722.41
2023-03-18T16:08:30.513Z,20639.06
2023-03-18T16:11:05.746Z,20663.47
2023-03-18T16:13:37.448Z,20641.09
2023-03-18T16:16:06.491Z,20602.47
2023-03-18T16:18:34.898Z,20639.06
2023-03-18T16:21:04.720Z,20612.63
2023-03-18T16:23:33.192Z,20596.38
2023-03-18T16:26:02.110Z,20545.56
2023-03-18T16:28:30.250Z,20557.75
2023-03-18T16:30:58.517Z,20557.75
2023-03-18T16:33:26.972Z,20506.94
2023-03-18T16:35:59.147Z,20464.25
2023-03-18T16:38:31.022Z,20482.53
2023-03-18T16:40:59.329Z,20458.16
2023-03-18T16:43:29.829Z,20462.22
2023-03-18T16:46:03.959Z,20468.31
2023-03-18T16:48:32.685Z,20415.47
2023-03-18T16:51:02.771Z,20397.16
2023-03-18T16:53:33.189Z,20364.66
2023-03-18T16:56:11.049Z,20350.41
2023-03-18T16:58:39.284Z,20346.34
2023-03-18T17:01:07.861Z,20336.19
2023-03-18T17:03:37.040Z,20313.84
2023-03-18T17:06:06.718Z,20317.91
2023-03-18T17:08:36.734Z,20309.75
2023-03-18T17:11:05.995Z,20297.56
2023-03-18T17:13:38.541Z,20250.81
2023-03-18T17:16:15.271Z,20263.00
2023-03-18T17:18:43.420Z,20267.09
2023-03-18T17:21:13.200Z,20252.84
2023-03-18T17:23:42.792Z,20287.41
2023-03-18T17:26:15.782Z,20195.94
2023-03-18T17:28:46.702Z,20265.03
2023-03-18T17:31:15.382Z,20260.97
2023-03-18T17:33:44.232Z,20246.75
2023-03-18T17:36:12.582Z,20218.31
2023-03-18T17:38:42.145Z,20175.63
2023-03-18T17:41:20.841Z,20204.06
2023-03-18T17:43:49.175Z,20226.44
2023-03-18T17:46:17.468Z,20179.69
2023-03-18T17:48:46.160Z,20181.72
2023-03-18T17:51:18.573Z,20187.81
2023-03-18T17:53:51.338Z,20171.56
2023-03-18T17:56:20.948Z,20169.53
2023-03-18T17:58:52.385Z,20147.16
2023-03-18T18:01:26.550Z,20159.34
2023-03-18T18:03:56.247Z,20145.13
2023-03-18T18:06:28.997Z,20157.31
2023-03-18T18:09:00.332Z,20126.84
2023-03-18T18:11:31.182Z,20149.19
2023-03-18T18:14:11.232Z,20108.53
2023-03-18T18:16:39.597Z,20139.03
2023-03-18T18:19:08.666Z,20112.59
2023-03-18T18:21:37.487Z,20147.16
2023-03-18T18:24:19.153Z,20084.16
2023-03-18T18:26:48.231Z,20116.66
2023-03-18T18:29:22.213Z,20096.34
2023-03-18T18:31:52.195Z,20074.00
2023-03-18T18:34:21.167Z,20086.19
2023-03-18T18:36:50.636Z,20076.03
2023-03-18T18:39:20.875Z,20078.06
2023-03-18T18:41:49.290Z,20055.69
2023-03-18T18:44:18.977Z,20086.19
2023-03-18T18:46:47.686Z,20094.31
2023-03-18T18:49:22.235Z,20084.16
2023-03-18T18:51:53.200Z,20094.31
2023-03-18T18:54:22.787Z,20071.97
2023-03-18T18:56:52.125Z,20084.16
2023-03-18T18:59:24.724Z,20041.47
2023-03-18T19:01:53.351Z,20082.13
2023-03-18T19:04:22.872Z,20069.94
2023-03-18T19:06:52.353Z,20102.44
2023-03-18T19:09:25.967Z,20063.81
2023-03-18T19:11:56.098Z,20096.34
2023-03-18T19:14:27.189Z,20092.28
2023-03-18T19:16:58.866Z,20112.59
2023-03-18T19:19:30.426Z,20110.56
2023-03-18T19:21:58.820Z,20074.00
2023-03-18T19:24:30.952Z,20078.06
2023-03-18T19:27:02.867Z,20049.59
2023-03-18T19:29:32.997Z,20051.63
2023-03-18T19:32:02.161Z,20053.66
2023-03-18T19:34:32.009Z,20043.50
2023-03-18T19:37:02.617Z,20021.16
2023-03-18T19:39:32.188Z,20051.63
2023-03-18T19:42:00.428Z,20041.47
2023-03-18T19:44:28.712Z,20029.28
2023-03-18T19:47:01.050Z,20006.91
2023-03-18T19:49:33.517Z,20010.97
2023-03-18T19:52:02.314Z,20013.00
2023-03-18T19:54:34.784Z,20051.63
2023-03-18T19:57:06.673Z,20010.97
2023-03-18T19:59:39.688Z,19996.75
2023-03-18T20:02:24.216Z,20000.81
2023-03-18T20:04:54.609Z,19960.16
2023-03-18T20:07:25.576Z,19943.91
2023-03-18T20:09:56.254Z,19994.72
2023-03-18T20:12:29.842Z,19937.81
2023-03-18T20:14:58.112Z,19941.88
2023-03-18T20:17:32.245Z,19976.44
2023-03-18T20:20:01.012Z,19952.03
2023-03-18T20:22:33.733Z,19958.13
2023-03-18T20:25:05.845Z,19952.03
2023-03-18T20:27:34.384Z,20004.88
2023-03-18T20:30:03.230Z,19935.78
2023-03-18T20:32:31.766Z,19968.31
2023-03-18T20:35:02.901Z,19939.84
2023-03-18T20:37:35.936Z,19931.72
2023-03-18T20:40:12.220Z,19939.84
2023-03-18T20:42:41.437Z,19935.78
2023-03-18T20:45:15.807Z,19947.97
2023-03-18T20:47:44.307Z,19943.91
2023-03-18T20:50:15.521Z,19903.25
2023-03-18T20:52:45.483Z,19887.00
2023-03-18T20:55:26.468Z,19909.34
2023-03-18T20:57:55.391Z,19895.13
2023-03-18T21:00:26.873Z,19903.25
2023-03-18T21:02:58.003Z,19905.28
2023-03-18T21:05:27.525Z,19903.25
2023-03-18T21:07:55.823Z,19889.03
2023-03-18T21:10:28.215Z,19901.22
2023-03-18T21:12:56.426Z,19913.44
2023-03-18T21:15:28.154Z,19889.03
2023-03-18T21:17:56.478Z,19903.25
2023-03-18T21:20:29.985Z,19868.72
2023-03-18T21:22:58.088Z,19874.81
2023-03-18T21:25:29.276Z,19878.88
2023-03-18T21:27:58.327Z,19866.69
2023-03-18T21:30:26.516Z,19872.78
2023-03-18T21:32:54.722Z,19866.69
2023-03-18T21:35:25.660Z,19846.34
2023-03-18T21:37:54.466Z,19901.22
2023-03-18T21:40:25.033Z,19868.72
2023-03-18T21:42:54.778Z,19866.69
2023-03-18T21:45:24.358Z,19876.84
2023-03-18T21:47:53.104Z,19864.66
2023-03-18T21:50:24.298Z,19860.59
2023-03-18T21:52:54.981Z,19882.94
2023-03-18T21:55:23.668Z,19907.31
2023-03-18T21:57:51.840Z,19860.59
2023-03-18T22:00:22.461Z,19826.03
2023-03-18T22:02:51.007Z,19824.00
2023-03-18T22:05:22.837Z,19858.56
2023-03-18T22:07:52.126Z,19903.25
2023-03-18T22:10:23.944Z,19842.28
2023-03-18T22:12:52.494Z,19826.03
2023-03-18T22:15:46.716Z,19856.53
2023-03-18T22:18:15.905Z,19819.94
2023-03-18T22:20:47.064Z,19811.81
2023-03-18T22:23:22.305Z,19785.38
2023-03-18T22:25:53.431Z,19797.59
2023-03-18T22:28:22.935Z,19821.97
2023-03-18T22:30:55.186Z,19811.81
2023-03-18T22:33:29.468Z,19783.34
2023-03-18T22:35:58.152Z,19817.91
2023-03-18T22:38:27.298Z,19805.72
2023-03-18T22:40:58.577Z,19817.91
2023-03-18T22:43:31.926Z,19860.59
2023-03-18T22:46:03.863Z,19805.72
2023-03-18T22:48:32.554Z,19846.34
2023-03-18T22:51:01.729Z,19799.63
2023-03-18T22:53:36.617Z,19799.63
2023-03-18T22:56:11.395Z,19811.81
2023-03-18T22:58:40.641Z,19864.66
2023-03-18T23:01:15.465Z,19789.44
2023-03-18T23:03:44.750Z,19785.38
2023-03-18T23:06:18.552Z,19785.38
2023-03-18T23:08:47.222Z,19850.41
2023-03-18T23:11:16.992Z,19811.81
2023-03-18T23:13:49.753Z,19832.13
2023-03-18T23:16:21.764Z,19848.38
2023-03-18T23:18:51.412Z,19817.91
2023-03-18T23:21:22.873Z,19836.19
2023-03-18T23:23:52.387Z,19791.47
2023-03-18T23:26:21.552Z,19864.66
2023-03-18T23:28:49.843Z,19830.09
2023-03-18T23:31:19.378Z,19819.94
2023-03-18T23:33:48.090Z,19854.50
2023-03-18T23:36:16.598Z,19854.50
2023-03-18T23:38:44.764Z,19819.94
2023-03-18T23:41:13.000Z,19813.84
2023-03-18T23:43:41.207Z,19870.75
2023-03-18T23:46:09.514Z,19838.22
2023-03-18T23:48:39.132Z,19832.13
2023-03-18T23:51:07.511Z,19803.69
2023-03-18T23:53:35.776Z,19830.09
2023-03-18T23:56:04.159Z,19799.63
2023-03-18T23:58:32.310Z,19824.00
